KLMT/LMT METAR and TAF weather

Enter ICAO airport designator
Station Type Date Time Source
KLMT METAR 2021/09/28 16:53 UTC NOAA

KLMT 281653Z VRB06KT 10SM BKN022 07/03 A3018 RMK AO2 SLP217 T00670028


Station Type Date Time Source
KLMT Decoded METAR 2021/09/28 16:53 UTC NOAA

KLAMATH FALLS INTERNATIONAL AIRPORT, OR, United States (KLMT) 42-09N 121-43W 1246M
Sep 28, 2021 - 12:53 PM EDT / 2021.09.28 1653 UTC
Wind: Variable at 7 MPH (6 KT):0
Visibility: 10 mile(s):0
Sky conditions: mostly cloudy
Temperature: 44.1 F (6.7 C)
Dew Point: 37.0 F (2.8 C)
Relative Humidity: 76%
Pressure (altimeter): 30.18 in. Hg (1022 hPa)
ob: KLMT 281653Z VRB06KT 10SM BKN022 07/03 A3018 RMK AO2 SLP217 T00670028
cycle: 17

Station Type Date Time Source
KLMT TAF 2021/09/28 17:33 UTC NOAA

TAF
AMD KLMT 281630Z 2817/2912 26005KT P6SM BKN040
TEMPO 2817/2818 BKN025
FM282100 32008KT P6SM SCT050 BKN120

Example: see airport list